createdAt,value
2018-12-14T00:00:41.556Z,1019.75
2018-12-14T00:01:41.566Z,1019.74
2018-12-14T00:02:41.571Z,1019.77
2018-12-14T00:03:41.688Z,1019.78
2018-12-14T00:04:41.792Z,1019.78
2018-12-14T00:05:41.603Z,1019.80
2018-12-14T00:06:41.594Z,1019.77
2018-12-14T00:07:41.613Z,1019.79
2018-12-14T00:08:41.652Z,1019.82
2018-12-14T00:09:42.578Z,1019.76
2018-12-14T00:10:41.633Z,1019.80
2018-12-14T00:11:45.585Z,1019.78
2018-12-14T00:12:41.692Z,1019.80
2018-12-14T00:13:41.673Z,1019.80
2018-12-14T00:14:41.736Z,1019.81
2018-12-14T00:15:41.658Z,1019.82
2018-12-14T00:16:41.624Z,1019.82
2018-12-14T00:17:41.628Z,1019.87
2018-12-14T00:18:41.639Z,1019.82
2018-12-14T00:19:41.749Z,1019.83
2018-12-14T00:20:41.646Z,1019.82
2018-12-14T00:21:41.638Z,1019.84
2018-12-14T00:22:41.641Z,1019.82
2018-12-14T00:23:41.675Z,1019.87
2018-12-14T00:24:41.668Z,1019.85
2018-12-14T00:25:41.686Z,1019.84
2018-12-14T00:26:41.654Z,1019.85
2018-12-14T00:27:41.664Z,1019.86
2018-12-14T00:28:41.993Z,1019.88
2018-12-14T00:29:41.717Z,1019.89
2018-12-14T00:30:41.659Z,1019.89
2018-12-14T00:31:41.838Z,1019.86
2018-12-14T00:32:41.660Z,1019.92
2018-12-14T00:33:41.716Z,1019.89
2018-12-14T00:34:42.500Z,1019.87
2018-12-14T00:35:42.213Z,1019.90
2018-12-14T00:36:41.887Z,1019.95
2018-12-14T00:37:41.967Z,1019.92
2018-12-14T00:38:41.695Z,1019.96
2018-12-14T00:39:41.885Z,1019.95
2018-12-14T00:40:41.723Z,1019.95
2018-12-14T00:41:41.794Z,1019.99
2018-12-14T00:42:41.752Z,1019.97
2018-12-14T00:43:41.700Z,1019.95
2018-12-14T00:44:41.722Z,1019.98
2018-12-14T00:45:41.719Z,1019.97
2018-12-14T00:46:41.726Z,1020.05
2018-12-14T00:47:41.730Z,1020.01
2018-12-14T00:48:41.705Z,1020.04
2018-12-14T00:49:41.720Z,1020.03
2018-12-14T00:50:41.727Z,1020.05
2018-12-14T00:51:41.739Z,1020.01
2018-12-14T00:52:41.750Z,1020.07
2018-12-14T00:53:41.887Z,1020.03
2018-12-14T00:54:41.816Z,1020.06
2018-12-14T00:55:41.764Z,1020.06
2018-12-14T00:56:41.807Z,1020.06
2018-12-14T00:57:41.789Z,1020.10
2018-12-14T00:58:41.731Z,1020.11
2018-12-14T00:59:41.763Z,1020.10
2018-12-14T01:00:41.749Z,1020.11
2018-12-14T01:01:41.811Z,1020.12
2018-12-14T01:02:41.756Z,1020.12
2018-12-14T01:03:41.817Z,1020.14
2018-12-14T01:04:41.837Z,1020.12
2018-12-14T01:05:50.489Z,1020.14
2018-12-14T01:06:43.770Z,1020.19
2018-12-14T01:07:41.843Z,1020.14
2018-12-14T01:08:43.971Z,1020.17
2018-12-14T01:09:46.563Z,1020.14
2018-12-14T01:10:41.981Z,1020.18
2018-12-14T01:11:42.733Z,1020.21
2018-12-14T01:12:42.303Z,1020.20
2018-12-14T01:13:43.325Z,1020.22
2018-12-14T01:14:42.806Z,1020.22
2018-12-14T01:15:47.992Z,1020.22
2018-12-14T01:16:41.974Z,1020.20
2018-12-14T01:17:41.900Z,1020.20
2018-12-14T01:18:41.884Z,1020.18
2018-12-14T01:19:41.838Z,1020.22
2018-12-14T01:20:41.836Z,1020.24
2018-12-14T01:21:41.827Z,1020.22
2018-12-14T01:22:41.832Z,1020.23
2018-12-14T01:23:41.845Z,1020.25
2018-12-14T01:24:41.959Z,1020.21
2018-12-14T01:25:41.842Z,1020.21
2018-12-14T01:26:41.861Z,1020.22
2018-12-14T01:27:41.838Z,1020.19
2018-12-14T01:28:41.838Z,1020.15
2018-12-14T01:29:41.847Z,1020.17
2018-12-14T01:30:41.852Z,1020.20
2018-12-14T01:31:41.847Z,1020.22
2018-12-14T01:32:41.869Z,1020.22
2018-12-14T01:33:41.864Z,1020.21
2018-12-14T01:34:41.861Z,1020.23
2018-12-14T01:35:41.888Z,1020.19
2018-12-14T01:36:41.890Z,1020.18
2018-12-14T01:37:41.878Z,1020.18
2018-12-14T01:38:41.893Z,1020.26
2018-12-14T01:39:41.907Z,1020.23
2018-12-14T01:40:42.044Z,1020.19
2018-12-14T01:41:41.903Z,1020.22
2018-12-14T01:42:41.881Z,1020.17
2018-12-14T01:43:41.894Z,1020.15
2018-12-14T01:44:41.882Z,1020.19
2018-12-14T01:45:41.899Z,1020.16
2018-12-14T01:46:41.944Z,1020.15
2018-12-14T01:47:41.930Z,1020.16
2018-12-14T01:48:41.925Z,1020.13
2018-12-14T01:49:41.929Z,1020.11
2018-12-14T01:50:41.921Z,1020.10
2018-12-14T01:51:41.935Z,1020.11
2018-12-14T01:52:41.934Z,1020.10
2018-12-14T01:53:41.939Z,1020.15
2018-12-14T01:54:41.952Z,1020.10
2018-12-14T01:55:41.920Z,1020.08
2018-12-14T01:56:41.972Z,1020.04
2018-12-14T01:57:41.929Z,1020.09
2018-12-14T01:58:41.931Z,1020.06
2018-12-14T01:59:41.939Z,1020.08
2018-12-14T02:00:42.621Z,1020.09
2018-12-14T02:01:41.970Z,1020.08
2018-12-14T02:02:42.009Z,1020.10
2018-12-14T02:03:41.966Z,1020.11
2018-12-14T02:04:41.972Z,1020.16
2018-12-14T02:05:41.971Z,1020.11
2018-12-14T02:06:41.977Z,1020.13
2018-12-14T02:07:42.003Z,1020.12
2018-12-14T02:08:42.004Z,1020.13
2018-12-14T02:09:41.989Z,1020.11
2018-12-14T02:10:41.971Z,1020.14
2018-12-14T02:11:41.970Z,1020.13
2018-12-14T02:12:41.973Z,1020.15
2018-12-14T02:13:42.020Z,1020.14
2018-12-14T02:14:42.031Z,1020.10
2018-12-14T02:15:42.059Z,1020.15
2018-12-14T02:16:42.013Z,1020.18
2018-12-14T02:17:42.015Z,1020.13
2018-12-14T02:18:42.018Z,1020.14
2018-12-14T02:19:42.035Z,1020.14
2018-12-14T02:20:42.017Z,1020.13
2018-12-14T02:21:42.093Z,1020.16
2018-12-14T02:22:42.050Z,1020.13
2018-12-14T02:23:42.055Z,1020.18
2018-12-14T02:24:42.025Z,1020.13
2018-12-14T02:25:42.021Z,1020.15
2018-12-14T02:26:42.015Z,1020.15
2018-12-14T02:27:42.037Z,1020.14
2018-12-14T02:28:42.030Z,1020.12
2018-12-14T02:29:42.043Z,1020.13
2018-12-14T02:30:42.196Z,1020.14
2018-12-14T02:31:42.061Z,1020.13
2018-12-14T02:32:42.076Z,1020.14
2018-12-14T02:33:42.216Z,1020.13
2018-12-14T02:34:42.070Z,1020.17
2018-12-14T02:35:42.068Z,1020.15
2018-12-14T02:36:42.123Z,1020.14
2018-12-14T02:37:42.040Z,1020.11
2018-12-14T02:38:42.065Z,1020.11
2018-12-14T02:39:42.071Z,1020.16
2018-12-14T02:40:42.066Z,1020.09
2018-12-14T02:41:42.079Z,1020.12
2018-12-14T02:42:42.101Z,1020.11
2018-12-14T02:43:42.082Z,1020.14
2018-12-14T02:44:42.108Z,1020.14
2018-12-14T02:45:42.105Z,1020.14
2018-12-14T02:46:42.096Z,1020.11
2018-12-14T02:47:42.109Z,1020.10
2018-12-14T02:48:42.126Z,1020.15
2018-12-14T02:49:42.108Z,1020.12
2018-12-14T02:50:42.094Z,1020.15
2018-12-14T02:51:42.119Z,1020.15
2018-12-14T02:52:42.139Z,1020.09
2018-12-14T02:53:42.137Z,1020.11
2018-12-14T02:54:42.109Z,1020.14
2018-12-14T02:55:42.129Z,1020.13
2018-12-14T02:56:42.112Z,1020.08
2018-12-14T02:57:42.133Z,1020.13
2018-12-14T02:58:42.127Z,1020.09
2018-12-14T02:59:42.122Z,1020.15
2018-12-14T03:00:42.131Z,1020.15
2018-12-14T03:01:42.314Z,1020.15
2018-12-14T03:02:42.165Z,1020.13
2018-12-14T03:03:42.139Z,1020.14
2018-12-14T03:04:42.149Z,1020.14
2018-12-14T03:05:42.131Z,1020.13
2018-12-14T03:06:42.154Z,1020.13
2018-12-14T03:07:42.159Z,1020.14
2018-12-14T03:08:42.211Z,1020.14
2018-12-14T03:09:42.208Z,1020.11
2018-12-14T03:10:42.164Z,1020.11
2018-12-14T03:11:42.172Z,1020.09
2018-12-14T03:12:42.170Z,1020.11
2018-12-14T03:13:42.160Z,1020.07
2018-12-14T03:14:42.147Z,1020.12
2018-12-14T03:15:42.218Z,1020.11
2018-12-14T03:16:42.193Z,1020.12
2018-12-14T03:17:42.171Z,1020.10
2018-12-14T03:18:42.211Z,1020.15
2018-12-14T03:19:42.189Z,1020.12
2018-12-14T03:20:42.222Z,1020.09
2018-12-14T03:21:42.201Z,1020.09
2018-12-14T03:22:42.198Z,1020.10
2018-12-14T03:23:42.240Z,1020.08
2018-12-14T03:24:42.202Z,1020.08
2018-12-14T03:25:42.260Z,1020.05
2018-12-14T03:26:42.200Z,1020.11
2018-12-14T03:27:42.226Z,1020.10
2018-12-14T03:28:42.233Z,1020.08
2018-12-14T03:29:42.276Z,1020.12
2018-12-14T03:30:42.241Z,1020.12
2018-12-14T03:31:42.244Z,1020.13
2018-12-14T03:32:42.415Z,1020.11
2018-12-14T03:33:42.240Z,1020.11
2018-12-14T03:34:42.258Z,1020.13
2018-12-14T03:35:42.222Z,1020.14
2018-12-14T03:36:42.359Z,1020.14
2018-12-14T03:37:42.239Z,1020.15
2018-12-14T03:38:42.244Z,1020.21
2018-12-14T03:39:42.286Z,1020.15
2018-12-14T03:40:42.278Z,1020.17
2018-12-14T03:41:42.287Z,1020.16
2018-12-14T03:42:42.249Z,1020.14
2018-12-14T03:43:42.287Z,1020.18
2018-12-14T03:44:42.262Z,1020.13
2018-12-14T03:45:42.286Z,1020.13
2018-12-14T03:46:42.299Z,1020.10
2018-12-14T03:47:42.317Z,1020.12
2018-12-14T03:48:42.278Z,1020.12
2018-12-14T03:49:42.274Z,1020.10
2018-12-14T03:50:42.279Z,1020.06
2018-12-14T03:51:42.314Z,1020.11
2018-12-14T03:52:42.287Z,1020.10
2018-12-14T03:53:42.305Z,1020.11
2018-12-14T03:54:42.298Z,1020.07
2018-12-14T03:55:42.300Z,1020.09
2018-12-14T03:56:42.300Z,1020.09
2018-12-14T03:57:42.296Z,1020.08
2018-12-14T03:58:42.343Z,1020.03
2018-12-14T03:59:42.288Z,1020.07
2018-12-14T04:00:42.392Z,1020.04
2018-12-14T04:01:42.371Z,1020.04
2018-12-14T04:02:42.349Z,1020.06
2018-12-14T04:03:42.304Z,1020.06
2018-12-14T04:04:42.389Z,1020.04
2018-12-14T04:05:42.343Z,1020.09
2018-12-14T04:06:42.339Z,1020.08
2018-12-14T04:07:42.346Z,1020.11
2018-12-14T04:08:42.359Z,1020.11
2018-12-14T04:09:42.397Z,1020.06
2018-12-14T04:10:42.404Z,1020.07
2018-12-14T04:11:42.376Z,1020.11
2018-12-14T04:12:42.356Z,1020.06
2018-12-14T04:13:42.338Z,1020.05
2018-12-14T04:14:42.375Z,1020.07
2018-12-14T04:15:42.375Z,1020.08
2018-12-14T04:16:42.351Z,1020.10
2018-12-14T04:17:42.358Z,1020.12
2018-12-14T04:18:42.400Z,1020.09
2018-12-14T04:19:42.422Z,1020.10
2018-12-14T04:20:42.361Z,1020.11
2018-12-14T04:21:42.392Z,1020.16
2018-12-14T04:22:42.403Z,1020.17
2018-12-14T04:23:42.365Z,1020.14
2018-12-14T04:24:42.372Z,1020.15
2018-12-14T04:25:42.527Z,1020.16
2018-12-14T04:26:42.397Z,1020.15
2018-12-14T04:27:42.376Z,1020.15
2018-12-14T04:28:42.411Z,1020.17
2018-12-14T04:29:42.385Z,1020.22
2018-12-14T04:30:42.396Z,1020.18
2018-12-14T04:31:42.428Z,1020.17
2018-12-14T04:32:42.406Z,1020.15
2018-12-14T04:33:42.400Z,1020.16
2018-12-14T04:34:42.401Z,1020.21
2018-12-14T04:35:42.427Z,1020.20
2018-12-14T04:36:42.485Z,1020.19
2018-12-14T04:37:42.397Z,1020.19
2018-12-14T04:38:42.439Z,1020.19
2018-12-14T04:39:42.445Z,1020.17
2018-12-14T04:40:42.457Z,1020.16
2018-12-14T04:41:42.417Z,1020.17
2018-12-14T04:42:48.757Z,1020.14
2018-12-14T04:43:42.432Z,1020.16
2018-12-14T04:44:42.433Z,1020.12
2018-12-14T04:45:42.470Z,1020.16
2018-12-14T04:46:42.480Z,1020.11
2018-12-14T04:47:42.447Z,1020.18
2018-12-14T04:48:42.447Z,1020.15
2018-12-14T04:49:42.451Z,1020.14
2018-12-14T04:50:42.485Z,1020.16
2018-12-14T04:51:42.449Z,1020.11
2018-12-14T04:52:42.439Z,1020.13
2018-12-14T04:53:42.478Z,1020.13
2018-12-14T04:54:42.466Z,1020.16
2018-12-14T04:55:42.460Z,1020.13
2018-12-14T04:56:42.491Z,1020.13
2018-12-14T04:57:42.493Z,1020.15
2018-12-14T04:58:42.477Z,1020.15
2018-12-14T04:59:42.474Z,1020.15
2018-12-14T05:00:42.503Z,1020.14
2018-12-14T05:01:42.479Z,1020.18
2018-12-14T05:02:42.498Z,1020.16
2018-12-14T05:03:42.519Z,1020.16
2018-12-14T05:04:42.485Z,1020.14
2018-12-14T05:05:42.496Z,1020.14
2018-12-14T05:06:42.637Z,1020.14
2018-12-14T05:07:42.507Z,1020.14
2018-12-14T05:08:42.520Z,1020.13
2018-12-14T05:09:42.500Z,1020.13
2018-12-14T05:10:42.535Z,1020.11
2018-12-14T05:11:42.607Z,1020.11
2018-12-14T05:12:42.504Z,1020.11
2018-12-14T05:13:42.567Z,1020.12
2018-12-14T05:14:42.565Z,1020.14
2018-12-14T05:15:42.519Z,1020.11
2018-12-14T05:16:42.527Z,1020.13
2018-12-14T05:17:42.550Z,1020.15
2018-12-14T05:18:42.557Z,1020.14
2018-12-14T05:19:42.566Z,1020.14
2018-12-14T05:20:42.566Z,1020.15
2018-12-14T05:21:42.587Z,1020.15
2018-12-14T05:22:42.586Z,1020.17
2018-12-14T05:23:42.586Z,1020.15
2018-12-14T05:24:42.542Z,1020.18
2018-12-14T05:25:42.541Z,1020.16
2018-12-14T05:26:42.554Z,1020.17
2018-12-14T05:27:42.582Z,1020.19
2018-12-14T05:28:42.607Z,1020.14
2018-12-14T05:29:42.594Z,1020.16
2018-12-14T05:30:42.563Z,1020.14
2018-12-14T05:31:42.567Z,1020.20
2018-12-14T05:32:42.609Z,1020.19
2018-12-14T05:33:42.562Z,1020.21
2018-12-14T05:34:42.606Z,1020.21
2018-12-14T05:35:42.602Z,1020.23
2018-12-14T05:36:42.610Z,1020.21
2018-12-14T05:37:42.588Z,1020.24
2018-12-14T05:38:42.617Z,1020.25
2018-12-14T05:39:43.067Z,1020.26
2018-12-14T05:40:42.589Z,1020.25
2018-12-14T05:41:42.590Z,1020.28
2018-12-14T05:42:42.590Z,1020.25
2018-12-14T05:43:42.605Z,1020.28
2018-12-14T05:44:42.672Z,1020.35
2018-12-14T05:45:42.664Z,1020.32
2018-12-14T05:46:42.637Z,1020.30
2018-12-14T05:47:42.633Z,1020.32
2018-12-14T05:48:42.643Z,1020.32
2018-12-14T05:49:42.651Z,1020.30
2018-12-14T05:50:42.659Z,1020.30
2018-12-14T05:51:42.644Z,1020.32
2018-12-14T05:52:42.617Z,1020.30
2018-12-14T05:53:42.621Z,1020.28
2018-12-14T05:54:42.637Z,1020.30
2018-12-14T05:55:42.703Z,1020.25
2018-12-14T05:56:42.653Z,1020.30
2018-12-14T05:57:42.652Z,1020.28
2018-12-14T05:58:42.655Z,1020.30
2018-12-14T05:59:42.631Z,1020.30
2018-12-14T06:00:42.824Z,1020.32
2018-12-14T06:01:42.689Z,1020.32
2018-12-14T06:02:42.641Z,1020.34
2018-12-14T06:03:42.694Z,1020.35
2018-12-14T06:04:42.652Z,1020.32
2018-12-14T06:05:42.667Z,1020.33
2018-12-14T06:06:42.660Z,1020.35
2018-12-14T06:07:42.863Z,1020.34
2018-12-14T06:08:42.652Z,1020.32
2018-12-14T06:09:42.658Z,1020.33
2018-12-14T06:10:42.698Z,1020.37
2018-12-14T06:11:42.691Z,1020.37
2018-12-14T06:12:42.742Z,1020.37
2018-12-14T06:13:42.690Z,1020.37
2018-12-14T06:14:42.698Z,1020.43
2018-12-14T06:15:42.673Z,1020.45
2018-12-14T06:16:42.707Z,1020.41
2018-12-14T06:17:42.725Z,1020.49
2018-12-14T06:18:42.745Z,1020.48
2018-12-14T06:19:42.698Z,1020.40
2018-12-14T06:20:42.769Z,1020.43
2018-12-14T06:21:42.727Z,1020.51
2018-12-14T06:22:42.756Z,1020.46
2018-12-14T06:23:42.716Z,1020.44
2018-12-14T06:24:42.766Z,1020.44
2018-12-14T06:25:42.737Z,1020.45
2018-12-14T06:26:42.753Z,1020.46
2018-12-14T06:27:42.756Z,1020.46
2018-12-14T06:28:42.795Z,1020.47
2018-12-14T06:29:42.723Z,1020.51
2018-12-14T06:30:42.720Z,1020.51
2018-12-14T06:31:42.756Z,1020.52
2018-12-14T06:32:42.790Z,1020.58
2018-12-14T06:33:42.750Z,1020.62
2018-12-14T06:34:42.765Z,1020.60
2018-12-14T06:35:42.746Z,1020.59
2018-12-14T06:36:42.746Z,1020.58
2018-12-14T06:37:42.773Z,1020.59
2018-12-14T06:38:42.780Z,1020.58
2018-12-14T06:39:42.792Z,1020.63
2018-12-14T06:40:42.785Z,1020.63
2018-12-14T06:41:42.757Z,1020.65
2018-12-14T06:42:42.794Z,1020.64
2018-12-14T06:43:42.776Z,1020.66
2018-12-14T06:44:43.179Z,1020.67
2018-12-14T06:45:42.811Z,1020.71
2018-12-14T06:46:42.833Z,1020.71
2018-12-14T06:47:42.824Z,1020.70
2018-12-14T06:48:42.768Z,1020.72
2018-12-14T06:49:42.801Z,1020.74
2018-12-14T06:50:43.122Z,1020.73
2018-12-14T06:51:42.790Z,1020.73
2018-12-14T06:52:42.815Z,1020.76
2018-12-14T06:53:42.810Z,1020.75
2018-12-14T06:54:42.775Z,1020.80
2018-12-14T06:55:43.019Z,1020.76
2018-12-14T06:56:42.799Z,1020.76
2018-12-14T06:57:42.807Z,1020.80
2018-12-14T06:58:42.809Z,1020.77
2018-12-14T06:59:42.818Z,1020.80
2018-12-14T07:00:42.816Z,1020.83
2018-12-14T07:01:42.906Z,1020.80
2018-12-14T07:02:42.871Z,1020.81
2018-12-14T07:03:42.836Z,1020.80
2018-12-14T07:04:42.837Z,1020.78
2018-12-14T07:05:42.897Z,1020.80
2018-12-14T07:06:42.836Z,1020.78
2018-12-14T07:07:42.889Z,1020.80
2018-12-14T07:08:42.880Z,1020.75
2018-12-14T07:09:42.819Z,1020.89
2018-12-14T07:10:42.884Z,1020.79
2018-12-14T07:11:42.902Z,1020.82
2018-12-14T07:12:42.845Z,1020.86
2018-12-14T07:13:42.870Z,1020.82
2018-12-14T07:14:42.867Z,1020.84
2018-12-14T07:15:42.878Z,1020.83
2018-12-14T07:16:42.896Z,1020.86
2018-12-14T07:17:42.916Z,1020.87
2018-12-14T07:18:42.879Z,1020.88
2018-12-14T07:19:42.851Z,1020.85
2018-12-14T07:20:42.875Z,1020.84
2018-12-14T07:21:42.872Z,1020.84
2018-12-14T07:22:42.890Z,1020.84
2018-12-14T07:23:42.856Z,1020.87
2018-12-14T07:24:42.887Z,1020.87
2018-12-14T07:25:42.956Z,1020.87
2018-12-14T07:26:42.888Z,1020.89
2018-12-14T07:27:42.900Z,1020.96
2018-12-14T07:28:42.971Z,1020.89
2018-12-14T07:29:42.880Z,1020.86
2018-12-14T07:30:42.879Z,1020.92
2018-12-14T07:31:42.953Z,1020.90
2018-12-14T07:32:42.908Z,1020.90
2018-12-14T07:33:42.961Z,1020.87
2018-12-14T07:34:43.213Z,1020.86
2018-12-14T07:35:43.115Z,1020.86
2018-12-14T07:36:43.174Z,1020.91
2018-12-14T07:37:42.919Z,1020.91
2018-12-14T07:38:48.118Z,1020.98
2018-12-14T07:39:42.896Z,1020.99
2018-12-14T07:40:42.919Z,1020.99
2018-12-14T07:41:42.932Z,1021.02
2018-12-14T07:42:42.934Z,1021.07
2018-12-14T07:43:42.932Z,1021.03
2018-12-14T07:44:43.051Z,1021.08
2018-12-14T07:45:43.003Z,1021.00
2018-12-14T07:46:42.931Z,1021.02
2018-12-14T07:47:42.953Z,1021.04
2018-12-14T07:48:42.942Z,1021.12
2018-12-14T07:49:42.966Z,1021.06
2018-12-14T07:50:42.948Z,1021.05
2018-12-14T07:51:42.950Z,1021.14
2018-12-14T07:52:42.992Z,1021.03
2018-12-14T07:53:42.951Z,1021.08
2018-12-14T07:54:42.958Z,1021.12
2018-12-14T07:55:42.973Z,1021.14
2018-12-14T07:56:42.951Z,1021.08
2018-12-14T07:57:42.961Z,1021.10
2018-12-14T07:58:42.946Z,1021.16
2018-12-14T07:59:43.036Z,1021.16
2018-12-14T08:00:42.958Z,1021.19
2018-12-14T08:01:42.962Z,1021.19
2018-12-14T08:02:43.019Z,1021.25
2018-12-14T08:03:42.979Z,1021.30
2018-12-14T08:04:42.986Z,1021.29
2018-12-14T08:05:42.988Z,1021.28
2018-12-14T08:06:42.973Z,1021.29
2018-12-14T08:07:43.005Z,1021.30
2018-12-14T08:08:42.995Z,1021.25
2018-12-14T08:09:43.013Z,1021.26
2018-12-14T08:10:43.005Z,1021.20
2018-12-14T08:11:43.299Z,1021.27
2018-12-14T08:12:43.038Z,1021.28
2018-12-14T08:13:43.025Z,1021.30
2018-12-14T08:14:43.003Z,1021.32
2018-12-14T08:15:43.003Z,1021.33
2018-12-14T08:16:43.010Z,1021.33
2018-12-14T08:17:43.005Z,1021.32
2018-12-14T08:18:43.023Z,1021.39
2018-12-14T08:19:43.025Z,1021.34
2018-12-14T08:20:43.032Z,1021.39
2018-12-14T08:21:43.026Z,1021.34
2018-12-14T08:22:43.284Z,1021.40
2018-12-14T08:23:43.061Z,1021.39
2018-12-14T08:24:43.105Z,1021.35
2018-12-14T08:25:43.070Z,1021.40
2018-12-14T08:26:43.085Z,1021.40
2018-12-14T08:27:43.078Z,1021.42
2018-12-14T08:28:43.022Z,1021.46
2018-12-14T08:29:43.026Z,1021.46
2018-12-14T08:30:43.061Z,1021.41
2018-12-14T08:31:43.064Z,1021.39
2018-12-14T08:32:43.086Z,1021.43
2018-12-14T08:33:43.116Z,1021.43
2018-12-14T08:34:43.046Z,1021.43
2018-12-14T08:35:43.038Z,1021.49
2018-12-14T08:36:43.062Z,1021.54
2018-12-14T08:37:43.081Z,1021.50
2018-12-14T08:38:43.052Z,1021.46
2018-12-14T08:39:43.152Z,1021.51
2018-12-14T08:40:43.070Z,1021.56
2018-12-14T08:41:43.073Z,1021.56
2018-12-14T08:42:43.069Z,1021.54
2018-12-14T08:43:43.125Z,1021.51
2018-12-14T08:44:43.092Z,1021.53
2018-12-14T08:45:43.081Z,1021.57
2018-12-14T08:46:43.105Z,1021.54
2018-12-14T08:47:43.107Z,1021.58
2018-12-14T08:48:43.109Z,1021.59
2018-12-14T08:49:43.076Z,1021.62
2018-12-14T08:50:43.077Z,1021.59
2018-12-14T08:51:43.619Z,1021.60
2018-12-14T08:52:43.101Z,1021.66
2018-12-14T08:53:43.132Z,1021.61
2018-12-14T08:54:43.113Z,1021.63
2018-12-14T08:55:43.153Z,1021.68
2018-12-14T08:56:43.096Z,1021.70
2018-12-14T08:57:43.172Z,1021.69
2018-12-14T08:58:43.123Z,1021.70
2018-12-14T08:59:43.142Z,1021.75
2018-12-14T09:00:43.107Z,1021.75
2018-12-14T09:01:43.256Z,1021.76
2018-12-14T09:02:43.177Z,1021.78
2018-12-14T09:03:43.114Z,1021.74
2018-12-14T09:04:43.162Z,1021.71
2018-12-14T09:05:43.157Z,1021.75
2018-12-14T09:06:43.130Z,1021.76
2018-12-14T09:07:43.148Z,1021.78
2018-12-14T09:08:43.137Z,1021.74
2018-12-14T09:09:43.152Z,1021.80
2018-12-14T09:10:43.281Z,1021.80
2018-12-14T09:11:43.147Z,1021.81
2018-12-14T09:12:43.160Z,1021.82
2018-12-14T09:13:47.910Z,1021.82
2018-12-14T09:14:43.233Z,1021.89
2018-12-14T09:15:43.150Z,1021.88
2018-12-14T09:16:43.169Z,1021.84
2018-12-14T09:17:43.156Z,1021.85
2018-12-14T09:18:43.207Z,1021.90
2018-12-14T09:19:43.176Z,1021.79
2018-12-14T09:20:43.186Z,1021.83
2018-12-14T09:21:43.193Z,1021.85
2018-12-14T09:22:43.175Z,1021.83
2018-12-14T09:23:43.159Z,1021.92
2018-12-14T09:24:43.190Z,1021.84
2018-12-14T09:25:43.165Z,1021.88
2018-12-14T09:26:43.194Z,1021.87
2018-12-14T09:27:43.206Z,1021.88
2018-12-14T09:28:43.179Z,1021.88
2018-12-14T09:29:43.230Z,1021.91
2018-12-14T09:30:43.210Z,1021.90
2018-12-14T09:31:43.209Z,1021.88
2018-12-14T09:32:43.222Z,1021.87
2018-12-14T09:33:43.213Z,1021.86
2018-12-14T09:34:43.218Z,1021.87
2018-12-14T09:35:43.217Z,1021.86
2018-12-14T09:36:43.287Z,1021.91
2018-12-14T09:37:43.218Z,1021.86
2018-12-14T09:38:43.222Z,1021.93
2018-12-14T09:39:43.315Z,1021.88
2018-12-14T09:40:43.244Z,1021.88
2018-12-14T09:41:43.240Z,1021.91
2018-12-14T09:42:43.222Z,1021.88
2018-12-14T09:43:43.234Z,1021.96
2018-12-14T09:44:43.240Z,1021.88
2018-12-14T09:45:43.259Z,1021.91
2018-12-14T09:46:43.231Z,1021.89
2018-12-14T09:47:43.264Z,1021.88
2018-12-14T09:48:43.246Z,1021.91
2018-12-14T09:49:43.292Z,1021.86
2018-12-14T09:50:43.360Z,1021.91
2018-12-14T09:51:43.236Z,1021.88
2018-12-14T09:52:43.253Z,1021.86
2018-12-14T09:53:43.250Z,1021.85
2018-12-14T09:54:43.261Z,1021.95
2018-12-14T09:55:43.354Z,1021.87
2018-12-14T09:56:43.258Z,1021.95
2018-12-14T09:57:43.269Z,1021.91
2018-12-14T09:58:43.273Z,1021.89
2018-12-14T09:59:43.266Z,1021.86
2018-12-14T10:00:43.325Z,1021.84
2018-12-14T10:01:43.296Z,1021.83
2018-12-14T10:02:43.285Z,1021.84
2018-12-14T10:03:43.310Z,1021.84
2018-12-14T10:04:43.308Z,1021.87
2018-12-14T10:05:43.276Z,1021.84
2018-12-14T10:06:43.481Z,1021.87
2018-12-14T10:07:46.816Z,1021.86
2018-12-14T10:08:43.315Z,1021.80
2018-12-14T10:09:43.302Z,1021.87
2018-12-14T10:10:43.304Z,1021.87
2018-12-14T10:11:43.306Z,1021.88
2018-12-14T10:12:43.371Z,1021.88
2018-12-14T10:13:43.329Z,1021.86
2018-12-14T10:14:43.308Z,1021.83
2018-12-14T10:15:43.320Z,1021.87
2018-12-14T10:16:43.326Z,1021.83
2018-12-14T10:17:43.361Z,1021.88
2018-12-14T10:18:43.323Z,1021.88
2018-12-14T10:19:43.326Z,1021.85
2018-12-14T10:20:43.362Z,1021.90
2018-12-14T10:21:43.338Z,1021.80
2018-12-14T10:22:43.315Z,1021.85
2018-12-14T10:23:44.687Z,1021.84
2018-12-14T10:24:43.380Z,1021.79
2018-12-14T10:25:43.357Z,1021.84
2018-12-14T10:26:43.376Z,1021.84
2018-12-14T10:27:43.347Z,1021.83
2018-12-14T10:28:43.366Z,1021.87
2018-12-14T10:29:43.377Z,1021.86
2018-12-14T10:30:43.357Z,1021.81
2018-12-14T10:31:43.348Z,1021.83
2018-12-14T10:32:43.410Z,1021.86
2018-12-14T10:33:43.427Z,1021.89
2018-12-14T10:34:43.442Z,1021.87
2018-12-14T10:35:43.367Z,1021.86
2018-12-14T10:36:43.375Z,1021.85
2018-12-14T10:37:43.370Z,1021.89
2018-12-14T10:38:43.388Z,1021.84
2018-12-14T10:39:43.403Z,1021.86
2018-12-14T10:40:43.434Z,1021.85
2018-12-14T10:41:43.387Z,1021.85
2018-12-14T10:42:43.399Z,1021.89
2018-12-14T10:43:43.432Z,1021.87
2018-12-14T10:44:43.437Z,1021.82
2018-12-14T10:45:43.414Z,1021.86
2018-12-14T10:46:43.399Z,1021.85
2018-12-14T10:47:43.458Z,1021.81
2018-12-14T10:48:43.416Z,1021.86
2018-12-14T10:49:43.465Z,1021.81
2018-12-14T10:50:43.399Z,1021.82
2018-12-14T10:51:43.410Z,1021.82
2018-12-14T10:52:43.414Z,1021.82
2018-12-14T10:53:43.730Z,1021.81
2018-12-14T10:54:43.516Z,1021.79
2018-12-14T10:55:43.469Z,1021.85
2018-12-14T10:56:43.436Z,1021.80
2018-12-14T10:57:43.478Z,1021.84
2018-12-14T10:58:43.445Z,1021.82
2018-12-14T10:59:43.452Z,1021.83
2018-12-14T11:00:43.495Z,1021.82
2018-12-14T11:01:43.471Z,1021.83
2018-12-14T11:02:43.473Z,1021.81
2018-12-14T11:03:43.481Z,1021.78
2018-12-14T11:04:43.458Z,1021.87
2018-12-14T11:05:43.480Z,1021.83
2018-12-14T11:06:43.692Z,1021.80
2018-12-14T11:07:43.476Z,1021.84
2018-12-14T11:08:43.500Z,1021.80
2018-12-14T11:09:43.508Z,1021.79
2018-12-14T11:10:43.487Z,1021.88
2018-12-14T11:11:43.512Z,1021.85
2018-12-14T11:12:43.526Z,1021.88
2018-12-14T11:13:43.466Z,1021.89
2018-12-14T11:14:43.493Z,1021.82
2018-12-14T11:15:43.582Z,1021.83
2018-12-14T11:16:43.484Z,1021.84
2018-12-14T11:17:43.570Z,1021.83
2018-12-14T11:18:43.546Z,1021.84
2018-12-14T11:19:43.503Z,1021.80
2018-12-14T11:20:43.518Z,1021.80
2018-12-14T11:21:43.512Z,1021.84
2018-12-14T11:22:43.597Z,1021.80
2018-12-14T11:23:43.550Z,1021.92
2018-12-14T11:24:43.557Z,1021.87
2018-12-14T11:25:43.510Z,1021.87
2018-12-14T11:26:43.528Z,1021.88
2018-12-14T11:27:43.553Z,1021.85
2018-12-14T11:28:43.572Z,1021.89
2018-12-14T11:29:43.612Z,1021.92
2018-12-14T11:30:43.549Z,1021.92
2018-12-14T11:31:43.563Z,1021.95
2018-12-14T11:32:43.569Z,1021.95
2018-12-14T11:33:43.552Z,1021.88
2018-12-14T11:34:43.613Z,1021.91
2018-12-14T11:35:43.551Z,1021.93
2018-12-14T11:36:43.567Z,1021.93
2018-12-14T11:37:43.560Z,1021.97
2018-12-14T11:38:43.564Z,1021.93
2018-12-14T11:39:43.601Z,1021.93
2018-12-14T11:40:43.550Z,1021.90
2018-12-14T11:41:43.639Z,1021.95
2018-12-14T11:42:43.697Z,1021.98
2018-12-14T11:43:43.617Z,1021.96
2018-12-14T11:44:43.569Z,1021.94
2018-12-14T11:45:43.633Z,1021.99
2018-12-14T11:46:43.590Z,1021.97
2018-12-14T11:47:43.585Z,1021.98
2018-12-14T11:48:43.593Z,1022.03
2018-12-14T11:49:43.612Z,1022.03
2018-12-14T11:50:43.601Z,1022.06
2018-12-14T11:51:43.631Z,1022.09
2018-12-14T11:52:43.687Z,1022.08
2018-12-14T11:53:43.612Z,1022.08
2018-12-14T11:54:43.623Z,1022.10
2018-12-14T11:55:43.687Z,1022.11
2018-12-14T11:56:43.630Z,1022.09
2018-12-14T11:57:43.651Z,1022.09
2018-12-14T11:58:43.632Z,1022.11
2018-12-14T11:59:43.644Z,1022.14
2018-12-14T12:00:43.667Z,1022.09
2018-12-14T12:01:43.643Z,1022.11
2018-12-14T12:02:43.707Z,1022.11
2018-12-14T12:03:43.630Z,1022.09
2018-12-14T12:04:43.775Z,1022.17
2018-12-14T12:05:43.692Z,1022.06